Time;durP1;ratioP1;P1;durP2;ratioP2;P2;SDS_P1;SDS_P2;PMS_P1;PMS_P2;Temp;Humidity;BMP_temperature;BMP_pressure;BME280_temperature;BME280_humidity;BME280_pressure;Samples;Min_cycle;Max_cycle;Signal;HPM_P1;HPM_P2
2022/01/29 00:01:18;;;;;;;1.93;1.77;;;;;;;4.03;81.21;97857.94;5036934;28;20464;-67
2022/01/29 00:03:44;;;;;;;2.93;1.73;;;;;;;4.02;81.56;97857.09;5036345;28;20204;-68
2022/01/29 00:06:11;;;;;;;2.20;2.00;;;;;;;3.92;81.71;97853.41;5036745;28;20224;-67
2022/01/29 00:08:37;;;;;;;4.47;2.30;;;;;;;3.72;82.34;97846.00;5036895;28;20236;-67
2022/01/29 00:11:10;;;;;;;3.10;1.33;;;;;;;4.02;82.27;97838.84;5036588;28;20201;-67
2022/01/29 00:13:38;;;;;;;5.87;1.67;;;;;;;3.95;81.44;97837.56;5035850;28;20212;-67
2022/01/29 00:16:05;;;;;;;4.50;2.00;;;;;;;3.96;81.35;97828.81;5037529;28;20201;-67
2022/01/29 00:18:31;;;;;;;5.63;2.07;;;;;;;3.99;81.15;97828.59;5036178;28;20221;-67
2022/01/29 00:20:58;;;;;;;2.43;1.57;;;;;;;4.00;81.09;97827.66;5036270;28;20217;-67
2022/01/29 00:23:26;;;;;;;2.63;1.80;;;;;;;4.02;81.16;97817.97;5036633;28;20209;-68
2022/01/29 00:25:52;;;;;;;4.53;1.87;;;;;;;4.14;80.50;97816.31;5036609;28;20208;-67
2022/01/29 00:28:20;;;;;;;2.50;2.07;;;;;;;4.14;81.25;97819.78;5035764;28;20225;-67
2022/01/29 00:30:47;;;;;;;7.77;2.40;;;;;;;4.09;80.80;97818.41;5036989;28;20201;-67
2022/01/29 00:33:14;;;;;;;4.83;2.53;;;;;;;4.16;80.54;97804.84;5036627;28;20201;-68
2022/01/29 00:35:41;;;;;;;3.97;2.00;;;;;;;4.06;80.63;97798.59;5036134;28;20201;-67
2022/01/29 00:38:07;;;;;;;5.17;2.77;;;;;;;3.98;80.64;97790.41;5036006;28;20243;-67
2022/01/29 00:40:36;;;;;;;18.37;2.37;;;;;;;4.01;80.74;97782.41;5036869;28;20209;-67
2022/01/29 00:43:03;;;;;;;3.60;1.63;;;;;;;3.99;80.56;97770.38;5035728;28;20224;-67
2022/01/29 00:45:31;;;;;;;3.13;2.40;;;;;;;4.10;81.06;97758.31;5036264;28;20236;-67
2022/01/29 00:47:58;;;;;;;6.80;3.00;;;;;;;3.93;81.19;97761.19;5036359;28;20237;-67
2022/01/29 00:50:24;;;;;;;3.73;2.20;;;;;;;3.81;81.84;97758.56;5036268;28;20201;-67
2022/01/29 00:52:51;;;;;;;4.17;2.50;;;;;;;3.65;81.50;97766.53;5035588;28;20351;-67
2022/01/29 00:55:17;;;;;;;2.00;1.73;;;;;;;3.83;80.66;97767.94;5036613;28;20201;-67
2022/01/29 00:57:44;;;;;;;7.53;2.27;;;;;;;3.91;80.91;97763.06;5035954;28;20217;-67
2022/01/29 01:00:14;;;;;;;2.37;1.83;;;;;;;4.00;80.58;97767.69;5035954;28;20696;-67
2022/01/29 01:02:42;;;;;;;3.07;1.87;;;;;;;4.12;80.81;97760.81;5035635;28;20209;-67
2022/01/29 01:05:09;;;;;;;15.40;1.63;;;;;;;4.08;80.48;97764.56;5036435;28;20220;-67
2022/01/29 01:07:35;;;;;;;5.40;2.73;;;;;;;3.94;81.15;97759.41;5035821;28;20232;-67
2022/01/29 01:10:02;;;;;;;6.20;3.17;;;;;;;3.84;81.25;97753.94;5036063;28;20291;-67
2022/01/29 01:12:28;;;;;;;4.10;2.43;;;;;;;3.96;80.68;97755.78;5035593;28;20212;-67
2022/01/29 01:14:55;;;;;;;1.50;1.30;;;;;;;3.94;80.47;97751.59;5035971;28;20201;-67
2022/01/29 01:17:21;;;;;;;3.10;1.67;;;;;;;3.90;80.56;97752.75;5036129;28;20589;-67
2022/01/29 01:19:49;;;;;;;5.57;3.13;;;;;;;3.98;80.65;97737.41;5036243;28;20213;-67
2022/01/29 01:22:16;;;;;;;2.33;1.43;;;;;;;3.79;81.10;97740.41;5035152;28;20201;-67
2022/01/29 01:24:43;;;;;;;8.53;1.67;;;;;;;4.00;81.02;97727.72;5038560;28;20237;-67
2022/01/29 01:27:10;;;;;;;3.37;2.27;;;;;;;3.83;80.64;97734.06;5039991;28;20208;-68
2022/01/29 01:29:36;;;;;;;3.53;1.73;;;;;;;3.94;80.76;97730.75;5039359;28;20209;-67
2022/01/29 01:32:03;;;;;;;1.30;1.20;;;;;;;3.94;80.92;97720.31;5039268;28;20200;-67
2022/01/29 01:34:34;;;;;;;4.83;2.57;;;;;;;3.86;81.03;97712.97;5039897;28;20224;-67
2022/01/29 01:37:08;;;;;;;4.67;2.40;;;;;;;4.08;80.51;97718.44;5039269;28;21306;-67
2022/01/29 01:39:37;;;;;;;1.97;1.60;;;;;;;4.07;80.20;97711.56;5039188;28;20209;-67
2022/01/29 01:42:05;;;;;;;5.47;1.77;;;;;;;4.04;80.40;97713.56;5039503;28;20282;-67
2022/01/29 01:44:38;;;;;;;3.27;2.27;;;;;;;4.08;80.68;97713.22;5038921;28;20245;-67
2022/01/29 01:47:06;;;;;;;1.77;1.67;;;;;;;3.95;80.61;97701.94;5038832;28;20218;-67
2022/01/29 01:49:32;;;;;;;3.93;2.20;;;;;;;3.76;81.35;97701.47;5039080;28;20198;-68
2022/01/29 01:51:59;;;;;;;2.60;2.03;;;;;;;3.62;82.10;97708.53;5039679;28;20680;-67
2022/01/29 01:54:27;;;;;;;1.97;1.77;;;;;;;3.43;83.38;97705.44;5038683;28;20205;-68
2022/01/29 01:56:54;;;;;;;4.73;2.07;;;;;;;3.48;82.86;97697.34;5039256;28;20853;-68
2022/01/29 01:59:21;;;;;;;3.13;2.20;;;;;;;3.47;83.22;97695.66;5039023;28;20212;-68
2022/01/29 02:01:47;;;;;;;1.50;1.40;;;;;;;3.52;82.78;97694.44;5038982;28;20209;-68
2022/01/29 02:04:14;;;;;;;1.13;1.07;;;;;;;3.52;82.53;97691.81;5037870;28;20295;-67
2022/01/29 02:06:40;;;;;;;1.17;1.07;;;;;;;3.36;83.19;97693.75;5038090;28;20209;-67
2022/01/29 02:09:07;;;;;;;6.13;1.70;;;;;;;3.44;82.94;97688.88;5038151;28;20228;-67
2022/01/29 02:11:38;;;;;;;5.17;1.97;;;;;;;3.67;82.79;97694.25;5037921;28;20689;-67
2022/01/29 02:14:04;;;;;;;5.17;2.57;;;;;;;3.65;82.05;97692.69;5037729;28;20213;-67
2022/01/29 02:16:32;;;;;;;7.17;2.27;;;;;;;3.62;82.25;97692.06;5037897;28;20606;-67
2022/01/29 02:18:58;;;;;;;2.37;1.33;;;;;;;3.74;81.75;97687.72;5038207;28;20226;-67
2022/01/29 02:21:28;;;;;;;14.07;1.73;;;;;;;3.75;82.19;97685.94;5037687;28;20221;-67
2022/01/29 02:23:54;;;;;;;2.63;1.53;;;;;;;3.64;82.40;97696.25;5037224;28;20209;-69
2022/01/29 02:26:21;;;;;;;4.63;3.00;;;;;;;3.67;82.06;97696.03;5038241;28;20546;-69
2022/01/29 02:28:47;;;;;;;2.33;1.17;;;;;;;3.59;82.39;97697.47;5037268;28;20225;-69
2022/01/29 02:31:14;;;;;;;9.20;2.73;;;;;;;3.51;82.54;97703.16;5037621;28;20228;-69
2022/01/29 02:33:40;;;;;;;1.33;1.23;;;;;;;3.48;82.87;97695.56;5037183;28;20209;-69
2022/01/29 02:36:07;;;;;;;1.73;1.20;;;;;;;3.79;81.82;97690.88;5038000;28;20208;-70
2022/01/29 02:38:35;;;;;;;3.53;1.67;;;;;;;3.92;81.69;97691.72;5037404;28;20264;-69
2022/01/29 02:41:04;;;;;;;2.03;1.43;;;;;;;3.78;81.39;97688.34;5037612;28;20205;-69
2022/01/29 02:43:35;;;;;;;3.77;2.37;;;;;;;3.61;82.33;97695.59;5037485;28;20352;-69
2022/01/29 02:46:07;;;;;;;2.73;1.77;;;;;;;3.80;81.50;97681.25;5038564;28;20201;-69
2022/01/29 02:48:34;;;;;;;4.67;1.93;;;;;;;3.79;81.32;97661.34;5037006;28;20491;-69
2022/01/29 02:51:01;;;;;;;3.97;2.23;;;;;;;3.57;81.55;97655.06;5037601;28;20207;-70
2022/01/29 02:53:27;;;;;;;5.43;2.30;;;;;;;3.60;81.64;97647.03;5036890;28;20208;-67
2022/01/29 02:55:55;;;;;;;3.13;1.27;;;;;;;3.92;81.20;97639.56;5037428;28;20668;-67
2022/01/29 02:58:22;;;;;;;19.77;2.43;;;;;;;3.65;81.02;97628.38;5036947;28;20232;-67
2022/01/29 03:00:48;;;;;;;13.40;2.67;;;;;;;3.77;81.12;97630.16;5037612;28;20219;-67
2022/01/29 03:03:14;;;;;;;18.07;1.27;;;;;;;3.70;81.18;97623.69;5036519;28;20211;-67
2022/01/29 03:05:41;;;;;;;5.63;1.67;;;;;;;3.62;81.37;97619.09;5037719;28;20227;-67
2022/01/29 03:08:07;;;;;;;3.73;1.77;;;;;;;3.55;81.74;97616.03;5036989;28;20229;-67
2022/01/29 03:10:34;;;;;;;3.03;2.30;;;;;;;3.59;81.68;97619.28;5036994;28;20205;-67
2022/01/29 03:13:02;;;;;;;2.60;1.53;;;;;;;3.62;81.66;97610.31;5036348;28;20212;-67
2022/01/29 03:15:29;;;;;;;1.07;0.97;;;;;;;3.36;82.58;97606.94;5037064;28;20215;-67
2022/01/29 03:17:55;;;;;;;4.57;1.67;;;;;;;3.62;82.13;97606.06;5037140;28;20220;-68
2022/01/29 03:20:22;;;;;;;7.40;1.93;;;;;;;3.67;81.69;97599.59;5036627;28;20216;-67
2022/01/29 03:22:48;;;;;;;1.97;1.80;;;;;;;3.62;81.59;97605.09;5036107;28;20214;-67
2022/01/29 03:25:16;;;;;;;1.80;1.53;;;;;;;3.48;81.35;97606.16;5036919;28;20208;-67
2022/01/29 03:27:43;;;;;;;1.53;1.43;;;;;;;3.34;82.00;97601.00;5036485;28;20775;-67
2022/01/29 03:30:12;;;;;;;4.67;1.87;;;;;;;3.77;81.70;97590.25;5036956;28;20467;-67
2022/01/29 03:32:38;;;;;;;1.50;1.23;;;;;;;3.54;81.15;97582.25;5035882;28;20208;-67
2022/01/29 03:35:06;;;;;;;5.27;1.60;;;;;;;3.38;82.42;97589.44;5037126;28;20197;-67
2022/01/29 03:37:33;;;;;;;3.40;1.73;;;;;;;3.66;82.01;97585.72;5036317;28;20597;-67
2022/01/29 03:40:02;;;;;;;2.37;1.50;;;;;;;3.52;81.83;97578.94;5036269;28;20197;-67
2022/01/29 03:42:33;;;;;;;1.27;1.17;;;;;;;3.23;82.41;97569.59;5035657;28;20282;-67
2022/01/29 03:45:00;;;;;;;2.63;1.87;;;;;;;3.47;81.65;97566.22;5035671;28;20291;-67
2022/01/29 03:47:27;;;;;;;1.50;1.03;;;;;;;3.55;81.35;97563.09;5032130;28;20228;-67
2022/01/29 03:49:54;;;;;;;2.93;1.87;;;;;;;3.43;80.75;97566.53;5036683;28;20221;-67
2022/01/29 03:52:20;;;;;;;1.50;1.07;;;;;;;3.59;80.73;97567.16;5035749;28;20493;-67
2022/01/29 03:54:47;;;;;;;2.03;1.13;;;;;;;3.54;80.96;97570.09;5035820;28;20460;-67
2022/01/29 03:57:13;;;;;;;4.03;1.90;;;;;;;3.51;80.77;97548.59;5036756;28;20221;-67
2022/01/29 03:59:40;;;;;;;0.30;0.30;;;;;;;3.37;81.03;97553.91;5034156;28;20209;-67
2022/01/29 04:02:06;;;;;;;2.27;1.97;;;;;;;3.52;80.36;97560.69;5035980;28;20205;-67
2022/01/29 04:04:34;;;;;;;1.20;0.90;;;;;;;3.52;80.93;97566.75;5036008;28;20216;-67
2022/01/29 04:07:06;;;;;;;1.33;1.23;;;;;;;3.53;80.10;97572.81;5036281;28;20209;-67
2022/01/29 04:09:32;;;;;;;1.00;0.90;;;;;;;3.61;79.74;97567.91;5033870;28;20235;-67
2022/01/29 04:11:59;;;;;;;0.63;0.63;;;;;;;3.43;80.15;97571.75;5035911;28;20201;-67
2022/01/29 04:14:32;;;;;;;0.50;0.50;;;;;;;3.44;80.59;97581.22;5035500;28;20201;-67
2022/01/29 04:16:58;;;;;;;1.23;1.13;;;;;;;3.52;80.16;97571.13;5035989;28;20673;-67
2022/01/29 04:19:24;;;;;;;1.77;1.30;;;;;;;3.58;80.06;97562.88;5035828;28;20243;-67
2022/01/29 04:21:52;;;;;;;2.43;2.23;;;;;;;3.63;80.89;97552.06;5036549;28;20212;-67
2022/01/29 04:24:19;;;;;;;1.50;1.30;;;;;;;3.58;79.96;97552.47;5035566;28;21029;-67
2022/01/29 04:26:45;;;;;;;2.00;0.90;;;;;;;3.62;79.56;97552.97;5036102;28;20774;-66
2022/01/29 04:29:12;;;;;;;1.97;1.20;;;;;;;3.81;79.28;97545.59;5035911;28;20564;-67
2022/01/29 04:31:44;;;;;;;1.00;0.97;;;;;;;3.73;78.71;97547.06;5036497;28;20209;-67
2022/01/29 04:34:10;;;;;;;1.43;1.23;;;;;;;3.82;79.22;97546.44;5035513;28;20650;-67
2022/01/29 04:36:37;;;;;;;1.07;0.97;;;;;;;3.74;79.17;97546.97;5035848;28;20235;-67
2022/01/29 04:39:04;;;;;;;2.37;1.37;;;;;;;3.89;79.64;97551.09;5036239;28;20217;-67
2022/01/29 04:41:31;;;;;;;1.30;0.80;;;;;;;3.70;79.03;97555.06;5036005;28;20216;-67
2022/01/29 04:43:57;;;;;;;2.40;1.43;;;;;;;3.62;79.46;97546.13;5035514;28;20204;-66
2022/01/29 04:46:24;;;;;;;1.13;1.07;;;;;;;3.61;79.16;97541.84;5036440;28;20208;-68
2022/01/29 04:48:50;;;;;;;3.13;1.73;;;;;;;3.84;78.75;97542.75;5035773;28;20285;-67
2022/01/29 04:51:17;;;;;;;1.37;1.03;;;;;;;3.93;78.36;97539.53;5036239;28;20211;-67
2022/01/29 04:53:43;;;;;;;0.87;0.87;;;;;;;3.71;78.89;97528.91;5034848;28;20996;-67
2022/01/29 04:56:11;;;;;;;1.37;0.90;;;;;;;3.53;79.52;97528.50;5036328;28;20205;-67
2022/01/29 04:58:37;;;;;;;6.33;1.10;;;;;;;3.72;79.31;97538.41;5039338;28;20633;-67
2022/01/29 05:01:04;;;;;;;1.20;1.10;;;;;;;3.75;78.25;97532.97;5039817;28;20655;-67
2022/01/29 05:03:31;;;;;;;1.27;1.00;;;;;;;3.85;78.18;97533.19;5039080;28;20611;-67
2022/01/29 05:05:58;;;;;;;1.17;1.07;;;;;;;4.03;77.45;97531.91;5040784;28;20206;-67
2022/01/29 05:08:25;;;;;;;1.37;1.27;;;;;;;3.81;78.31;97524.72;5036539;28;20233;-67
2022/01/29 05:10:51;;;;;;;1.43;0.70;;;;;;;3.62;78.17;97518.28;5039667;28;20675;-69
2022/01/29 05:13:23;;;;;;;1.17;0.80;;;;;;;3.79;78.21;97516.19;5040101;28;20193;-69
2022/01/29 05:16:04;;;;;;;3.10;1.33;;;;;;;3.91;77.41;97515.34;5039690;28;20697;-70
2022/01/29 05:26:54;;;;;;;1.10;0.90;;;;;;;3.82;77.44;97529.00;5039303;28;20263;-67
2022/01/29 05:29:22;;;;;;;0.60;0.60;;;;;;;3.89;77.74;97530.25;5039532;28;20231;-67
2022/01/29 05:31:51;;;;;;;1.00;0.80;;;;;;;3.88;77.41;97532.97;5039565;28;20208;-67
2022/01/29 05:34:18;;;;;;;2.70;1.23;;;;;;;3.88;77.40;97527.75;5038834;28;20289;-69
2022/01/29 05:36:44;;;;;;;0.80;0.80;;;;;;;3.77;77.48;97523.28;5039457;28;20215;-69
2022/01/29 05:39:11;;;;;;;1.03;0.90;;;;;;;3.72;77.99;97522.75;5039278;28;20217;-69
2022/01/29 05:41:37;;;;;;;1.87;1.33;;;;;;;3.63;78.08;97526.00;5038893;28;20205;-70
2022/01/29 05:44:04;;;;;;;1.23;0.90;;;;;;;3.78;78.11;97526.72;5038570;28;20202;-67
2022/01/29 05:46:32;;;;;;;7.30;1.23;;;;;;;3.80;78.58;97515.22;5039163;28;20558;-67
2022/01/29 05:48:58;;;;;;;0.60;0.60;;;;;;;3.76;78.03;97507.75;5038852;28;20228;-67
2022/01/29 05:51:29;;;;;;;0.90;0.73;;;;;;;3.64;77.82;97511.19;5038891;28;20202;-67
2022/01/29 05:53:56;;;;;;;2.93;1.37;;;;;;;3.76;77.96;97524.22;5036561;28;20213;-66
2022/01/29 05:56:22;;;;;;;29.00;0.93;;;;;;;3.66;78.22;97522.34;5038728;28;20209;-67
2022/01/29 05:58:49;;;;;;;0.87;0.87;;;;;;;3.80;78.13;97524.84;5038534;28;20225;-68
2022/01/29 06:01:15;;;;;;;0.87;0.73;;;;;;;3.62;78.76;97539.94;5039000;28;20205;-68
2022/01/29 06:03:43;;;;;;;0.77;0.77;;;;;;;3.82;78.64;97528.19;5037920;28;20931;-67
2022/01/29 06:06:09;;;;;;;1.13;0.57;;;;;;;3.70;78.91;97534.22;5038151;28;20212;-67
2022/01/29 06:08:36;;;;;;;1.60;1.00;;;;;;;3.66;79.08;97525.78;5035660;28;20225;-67
2022/01/29 06:11:02;;;;;;;1.13;1.03;;;;;;;3.69;79.32;97507.34;5037997;28;20201;-67
2022/01/29 06:13:29;;;;;;;1.23;0.90;;;;;;;3.71;78.81;97505.44;5037923;28;20482;-67
2022/01/29 06:15:55;;;;;;;0.77;0.77;;;;;;;3.64;79.85;97501.59;5038376;28;20193;-67
2022/01/29 06:18:23;;;;;;;10.10;1.87;;;;;;;3.87;79.42;97495.66;5038011;28;20232;-67
2022/01/29 06:20:53;;;;;;;2.17;1.10;;;;;;;4.00;79.39;97490.41;5038236;28;20205;-66
2022/01/29 06:23:24;;;;;;;3.77;1.33;;;;;;;3.99;78.56;97499.19;5037255;28;20378;-66
2022/01/29 06:25:50;;;;;;;15.93;2.37;;;;;;;3.59;79.37;97499.41;5038219;28;20441;-67
2022/01/29 06:28:17;;;;;;;1.67;1.33;;;;;;;3.85;78.74;97497.50;5038797;28;20220;-67
2022/01/29 06:30:43;;;;;;;5.63;1.40;;;;;;;3.62;79.66;97501.81;5037978;28;20294;-67
2022/01/29 06:33:11;;;;;;;1.77;1.17;;;;;;;3.85;78.80;97502.72;5037376;28;20491;-67
2022/01/29 06:35:39;;;;;;;0.97;0.80;;;;;;;3.91;79.06;97504.09;5038819;28;20243;-68
2022/01/29 06:38:09;;;;;;;1.40;1.30;;;;;;;3.96;79.19;97499.38;5038488;28;20221;-69
2022/01/29 06:40:36;;;;;;;2.97;2.60;;;;;;;4.04;79.09;97503.13;5037657;28;20642;-69
2022/01/29 06:43:04;;;;;;;1.70;1.60;;;;;;;4.11;78.84;97504.38;5037232;28;20201;-69
2022/01/29 06:45:32;;;;;;;2.57;1.60;;;;;;;3.92;79.33;97503.97;5035835;28;20244;-69
2022/01/29 06:47:58;;;;;;;2.10;0.93;;;;;;;4.15;78.55;97516.25;5037943;28;21076;-69
2022/01/29 06:50:26;;;;;;;1.90;1.67;;;;;;;4.13;78.50;97515.53;5038907;28;20681;-69
2022/01/29 06:52:54;;;;;;;1.50;1.20;;;;;;;4.19;78.38;97522.94;5037466;28;20198;-69
2022/01/29 06:55:22;;;;;;;2.47;1.60;;;;;;;4.21;78.59;97526.25;5038481;28;20838;-69
2022/01/29 06:57:49;;;;;;;2.97;1.40;;;;;;;4.09;78.59;97524.50;5038361;28;20283;-69
2022/01/29 07:00:16;;;;;;;2.63;1.53;;;;;;;4.29;78.53;97516.13;5038305;28;20209;-69
2022/01/29 07:02:43;;;;;;;2.03;1.50;;;;;;;4.07;79.25;97523.75;5037577;28;20197;-69
2022/01/29 07:05:13;;;;;;;1.87;1.50;;;;;;;4.45;78.18;97524.53;5038216;28;20252;-69
2022/01/29 07:07:40;;;;;;;3.03;2.17;;;;;;;4.04;78.92;97518.78;5038640;28;20227;-68
2022/01/29 07:10:08;;;;;;;2.40;1.57;;;;;;;4.25;78.53;97517.25;5037956;28;20216;-69
2022/01/29 07:12:39;;;;;;;9.80;2.50;;;;;;;4.41;78.13;97518.69;5037416;28;20205;-69
2022/01/29 07:15:07;;;;;;;2.47;1.77;;;;;;;4.27;78.78;97513.59;5038395;28;20205;-69
2022/01/29 07:17:34;;;;;;;6.53;2.53;;;;;;;4.21;78.76;97515.81;5037745;28;20417;-69
2022/01/29 07:20:01;;;;;;;2.73;1.70;;;;;;;4.24;78.63;97505.19;5037419;28;20219;-69
2022/01/29 07:22:27;;;;;;;3.90;1.80;;;;;;;4.10;79.13;97501.84;5036705;28;20587;-69
2022/01/29 07:24:54;;;;;;;2.13;1.37;;;;;;;4.12;79.03;97506.03;5037305;28;20201;-69
2022/01/29 07:27:20;;;;;;;3.10;1.30;;;;;;;4.10;79.07;97502.69;5037232;28;20228;-68
2022/01/29 07:29:48;;;;;;;9.87;2.90;;;;;;;4.33;78.83;97494.91;5037099;28;20252;-69
2022/01/29 07:32:14;;;;;;;2.50;1.97;;;;;;;4.01;78.97;97503.34;5036136;28;20247;-69
2022/01/29 07:34:41;;;;;;;4.33;1.60;;;;;;;4.07;78.87;97492.47;5036390;28;20751;-69
2022/01/29 07:37:08;;;;;;;6.90;3.37;;;;;;;4.35;78.19;97493.03;5037529;28;20236;-69
2022/01/29 07:39:34;;;;;;;5.50;2.60;;;;;;;4.15;78.62;97486.72;5036742;28;20255;-69
2022/01/29 07:42:01;;;;;;;3.87;2.13;;;;;;;4.20;78.89;97488.06;5036709;28;20201;-69
2022/01/29 07:44:27;;;;;;;7.27;3.30;;;;;;;4.36;78.58;97483.41;5035239;28;20673;-70
2022/01/29 07:46:55;;;;;;;2.17;1.87;;;;;;;4.52;79.11;97478.75;5037332;28;20845;-69
2022/01/29 07:49:21;;;;;;;1.93;1.67;;;;;;;4.20;79.41;97488.06;5036702;28;20229;-69
2022/01/29 07:51:48;;;;;;;3.13;1.90;;;;;;;4.16;79.56;97501.44;5037047;28;20213;-69
2022/01/29 07:54:14;;;;;;;5.83;2.77;;;;;;;4.32;79.11;97508.06;5036650;28;20605;-69
2022/01/29 07:56:41;;;;;;;3.67;1.87;;;;;;;4.46;78.44;97515.75;5036651;28;20633;-69
2022/01/29 07:59:07;;;;;;;4.80;2.50;;;;;;;4.40;79.01;97521.41;5036825;28;20221;-70
2022/01/29 08:01:34;;;;;;;3.50;1.83;;;;;;;4.27;79.37;97531.03;5036905;28;20262;-69
2022/01/29 08:04:02;;;;;;;4.03;2.40;;;;;;;4.52;79.47;97526.59;5036277;28;20216;-69
2022/01/29 08:06:29;;;;;;;12.40;3.43;;;;;;;4.39;79.45;97524.94;5037057;28;20259;-69
2022/01/29 08:08:56;;;;;;;6.70;2.10;;;;;;;4.44;79.51;97517.63;5036560;28;20492;-69
2022/01/29 08:11:22;;;;;;;9.40;2.40;;;;;;;4.41;79.58;97508.25;5036411;28;20728;-69
2022/01/29 08:13:49;;;;;;;4.50;2.47;;;;;;;4.36;79.89;97530.41;5036021;28;20243;-69
2022/01/29 08:16:16;;;;;;;6.40;3.10;;;;;;;4.69;79.30;97526.22;5036904;28;20201;-69
2022/01/29 08:18:45;;;;;;;5.80;2.90;;;;;;;4.45;79.55;97520.13;5036348;28;20225;-69
2022/01/29 08:21:14;;;;;;;4.57;2.93;;;;;;;4.52;80.08;97521.38;5036441;28;20213;-69
2022/01/29 08:23:40;;;;;;;3.10;2.43;;;;;;;4.50;79.82;97522.41;5036035;28;20247;-69
2022/01/29 08:26:07;;;;;;;5.10;2.53;;;;;;;4.43;79.81;97523.78;5036822;28;20296;-69
2022/01/29 08:28:33;;;;;;;7.13;2.63;;;;;;;4.34;80.06;97532.25;5036148;28;20228;-69
2022/01/29 08:30:59;;;;;;;13.40;4.83;;;;;;;4.43;80.01;97526.38;5036735;28;20281;-69
2022/01/29 08:33:26;;;;;;;4.70;3.17;;;;;;;4.45;79.96;97509.69;5035872;28;20209;-69
2022/01/29 08:35:53;;;;;;;5.03;3.00;;;;;;;4.72;79.16;97506.88;5036852;28;20247;-69
2022/01/29 08:38:21;;;;;;;5.57;2.93;;;;;;;4.76;79.60;97492.66;5036594;28;20316;-70
2022/01/29 08:40:48;;;;;;;6.93;3.80;;;;;;;4.47;80.26;97501.78;5036406;28;20305;-69
2022/01/29 08:43:14;;;;;;;5.00;2.30;;;;;;;4.51;79.98;97500.59;5035780;28;20209;-69
2022/01/29 08:45:40;;;;;;;6.53;3.27;;;;;;;4.47;80.34;97501.78;5034404;28;20953;-69
2022/01/29 08:48:07;;;;;;;9.03;3.77;;;;;;;4.38;80.68;97516.28;5036498;28;20225;-67
2022/01/29 08:50:34;;;;;;;5.67;3.17;;;;;;;4.63;80.32;97517.97;5036477;28;20236;-69
2022/01/29 08:53:00;;;;;;;6.63;3.27;;;;;;;4.58;80.45;97509.66;5035624;28;20278;-69
2022/01/29 08:55:28;;;;;;;4.53;2.50;;;;;;;4.57;80.92;97503.59;5036235;28;20267;-69
2022/01/29 08:57:55;;;;;;;6.80;3.30;;;;;;;4.30;81.19;97507.34;5036449;28;20307;-69
2022/01/29 09:00:21;;;;;;;6.37;3.17;;;;;;;4.47;81.23;97512.22;5036500;28;20869;-69
2022/01/29 09:02:48;;;;;;;4.47;2.03;;;;;;;4.46;80.86;97505.31;5035235;28;20212;-69
2022/01/29 09:05:14;;;;;;;11.17;4.47;;;;;;;4.64;80.60;97493.56;5036786;28;20202;-69
2022/01/29 09:07:41;;;;;;;7.50;3.87;;;;;;;4.49;80.82;97492.03;5036677;28;20735;-69
2022/01/29 09:10:08;;;;;;;11.57;2.23;;;;;;;4.59;80.77;97493.06;5035894;28;20247;-69
2022/01/29 09:12:36;;;;;;;8.73;2.50;;;;;;;4.82;80.19;97487.00;5035511;28;20201;-69
2022/01/29 09:15:03;;;;;;;1.67;1.57;;;;;;;4.61;80.95;97489.38;5036848;28;20202;-69
2022/01/29 09:17:29;;;;;;;8.90;3.07;;;;;;;4.56;80.56;97488.88;5035964;28;21003;-69
2022/01/29 09:19:56;;;;;;;7.03;3.00;;;;;;;4.60;80.70;97476.44;5036025;28;20210;-69
2022/01/29 09:22:22;;;;;;;4.97;2.67;;;;;;;4.56;80.87;97464.56;5035866;28;20806;-69
2022/01/29 09:24:49;;;;;;;10.80;2.73;;;;;;;4.59;80.54;97459.94;5035755;28;20209;-69
2022/01/29 09:27:15;;;;;;;9.83;3.77;;;;;;;4.75;79.83;97462.25;5035731;28;20233;-69
2022/01/29 09:29:43;;;;;;;3.53;2.13;;;;;;;5.06;79.14;97465.94;5035672;28;20209;-69
2022/01/29 09:32:10;;;;;;;12.70;4.87;;;;;;;4.92;79.40;97462.69;5035419;28;20636;-69
2022/01/29 09:34:36;;;;;;;5.63;4.20;;;;;;;4.87;79.05;97452.59;5035356;28;21238;-68
2022/01/29 09:37:03;;;;;;;10.20;3.87;;;;;;;4.83;79.30;97453.75;5036046;28;20255;-69
2022/01/29 09:39:29;;;;;;;6.97;2.77;;;;;;;4.74;79.20;97464.06;5035862;28;20201;-69
2022/01/29 09:41:56;;;;;;;8.00;4.10;;;;;;;4.93;79.36;97459.97;5035872;28;20205;-69
2022/01/29 09:44:23;;;;;;;3.60;2.67;;;;;;;4.90;78.93;97457.59;5032681;28;20212;-69
2022/01/29 09:46:51;;;;;;;6.53;3.70;;;;;;;5.13;78.59;97459.34;5039521;28;20212;-69
2022/01/29 09:49:18;;;;;;;3.77;2.67;;;;;;;5.10;78.81;97467.38;5039208;28;20277;-69
2022/01/29 09:51:45;;;;;;;6.33;3.53;;;;;;;5.09;78.34;97463.13;5039425;28;20228;-69
2022/01/29 09:54:12;;;;;;;10.27;3.23;;;;;;;4.99;78.09;97464.75;5038572;28;20211;-68
2022/01/29 09:56:38;;;;;;;10.70;3.57;;;;;;;5.09;77.51;97465.75;5039201;28;20208;-67
2022/01/29 09:59:05;;;;;;;15.23;3.60;;;;;;;5.18;77.41;97466.81;5039367;28;21000;-67
2022/01/29 10:01:31;;;;;;;11.00;3.77;;;;;;;5.25;76.81;97461.00;5039331;28;20530;-67
2022/01/29 10:04:04;;;;;;;3.03;2.03;;;;;;;5.30;76.59;97448.44;5038311;28;20208;-69
2022/01/29 10:06:31;;;;;;;6.47;3.90;;;;;;;5.53;76.02;97448.34;5038665;28;20248;-69
2022/01/29 10:08:59;;;;;;;17.90;3.10;;;;;;;5.43;75.70;97443.94;5039917;28;20233;-69
2022/01/29 10:11:27;;;;;;;3.40;2.53;;;;;;;5.32;76.67;97448.31;5037723;28;20312;-69
2022/01/29 10:14:00;;;;;;;8.93;3.83;;;;;;;5.50;76.18;97440.75;5037391;28;20208;-69
2022/01/29 10:16:28;;;;;;;8.03;4.07;;;;;;;5.23;76.77;97443.78;5038566;28;20956;-69
2022/01/29 10:19:04;;;;;;;3.70;2.37;;;;;;;5.43;76.47;97443.94;5038881;28;20236;-69
2022/01/29 10:21:33;;;;;;;3.47;2.30;;;;;;;5.48;76.53;97447.88;5038492;28;20196;-69
2022/01/29 10:24:03;;;;;;;9.13;3.23;;;;;;;5.66;75.29;97450.88;5037875;28;20233;-69
2022/01/29 10:26:33;;;;;;;14.70;1.57;;;;;;;5.45;74.29;97449.91;5038637;28;20275;-69
2022/01/29 10:29:00;;;;;;;3.00;2.30;;;;;;;5.68;74.32;97439.34;5036976;28;20756;-69
2022/01/29 10:31:39;;;;;;;10.43;2.47;;;;;;;6.08;73.29;97443.16;5037640;28;20251;-69
2022/01/29 10:34:15;;;;;;;6.03;3.23;;;;;;;6.38;73.59;97451.22;5037203;28;20568;-69
2022/01/29 10:36:41;;;;;;;5.43;2.40;;;;;;;5.79;73.13;97462.06;5037594;28;20756;-69
2022/01/29 10:39:08;;;;;;;10.37;3.60;;;;;;;5.93;72.66;97454.84;5037661;28;20943;-68
2022/01/29 10:41:34;;;;;;;4.17;2.00;;;;;;;6.10;72.40;97457.78;5037771;28;20582;-69
2022/01/29 10:44:09;;;;;;;5.43;2.50;;;;;;;6.30;72.89;97450.97;5034222;28;20228;-70
2022/01/29 10:46:37;;;;;;;5.90;2.97;;;;;;;6.28;71.55;97440.63;5037827;28;20219;-70
2022/01/29 10:49:04;;;;;;;3.67;2.73;;;;;;;6.27;71.05;97444.19;5037907;28;20588;-69
2022/01/29 10:51:33;;;;;;;7.33;1.97;;;;;;;6.22;70.94;97454.22;5037269;28;20221;-69
2022/01/29 10:54:16;;;;;;;3.37;1.47;;;;;;;6.67;70.65;97450.53;5036763;28;20205;-70
2022/01/29 10:56:52;;;;;;;4.20;2.97;;;;;;;6.60;69.97;97451.16;5037096;28;20209;-70
2022/01/29 10:59:18;;;;;;;4.30;2.50;;;;;;;6.38;70.20;97443.38;5037488;28;20705;-70
2022/01/29 11:01:50;;;;;;;4.07;2.20;;;;;;;6.45;70.08;97434.03;5038232;28;20222;-69
2022/01/29 11:04:17;;;;;;;6.93;1.80;;;;;;;6.13;70.48;97433.97;5036844;28;20205;-69
2022/01/29 11:06:47;;;;;;;7.90;2.57;;;;;;;6.35;69.50;97435.72;5038078;28;20205;-70
2022/01/29 11:09:13;;;;;;;2.20;1.70;;;;;;;6.21;69.57;97415.91;5037508;28;20705;-70
2022/01/29 11:11:41;;;;;;;3.17;2.33;;;;;;;6.18;69.09;97416.13;5037990;28;20225;-68
2022/01/29 11:14:08;;;;;;;5.87;2.83;;;;;;;6.47;69.61;97430.34;5037396;28;20209;-69
2022/01/29 11:16:35;;;;;;;7.53;2.43;;;;;;;6.38;69.52;97418.00;5037786;28;20201;-69
2022/01/29 11:19:02;;;;;;;8.67;2.27;;;;;;;6.59;69.95;97408.41;5037574;28;20221;-70
2022/01/29 11:21:30;;;;;;;3.40;1.70;;;;;;;6.57;69.26;97412.09;5038052;28;20202;-69
2022/01/29 11:23:58;;;;;;;2.63;1.70;;;;;;;6.79;69.01;97405.00;5036649;28;21142;-69
2022/01/29 11:26:25;;;;;;;5.10;2.43;;;;;;;6.98;67.58;97402.53;5037738;28;20205;-70
2022/01/29 11:29:24;;;;;;;3.57;2.33;;;;;;;6.90;67.30;97403.16;5037556;28;20217;-69
2022/01/29 11:32:26;;;;;;;3.23;2.27;;;;;;;7.08;66.97;97400.81;5037466;28;20217;-69
2022/01/29 11:35:11;;;;;;;3.77;1.77;;;;;;;6.84;67.20;97394.97;5037029;28;20207;-69
2022/01/29 11:37:40;;;;;;;4.57;1.70;;;;;;;6.69;67.53;97396.22;5037430;28;20248;-69
2022/01/29 11:40:20;;;;;;;4.53;2.37;;;;;;;7.28;66.55;97391.16;5037317;28;20208;-69
2022/01/29 11:43:08;;;;;;;3.07;2.20;;;;;;;7.02;65.89;97390.84;5036560;28;20205;-70
2022/01/29 11:45:44;;;;;;;7.47;1.90;;;;;;;6.89;66.50;97391.00;5030844;28;20220;-69
2022/01/29 11:48:53;;;;;;;4.13;1.53;;;;;;;7.11;66.63;97387.44;5036593;28;20252;-69
2022/01/29 11:51:41;;;;;;;3.13;1.83;;;;;;;7.21;66.00;97380.47;5027213;28;20228;-70
2022/01/29 11:54:09;;;;;;;1.57;1.40;;;;;;;7.03;66.96;97371.53;5036074;28;20201;-69